createdAt,value
2022-10-17T00:02:16.686Z,66.11
2022-10-17T00:04:43.044Z,65.85
2022-10-17T00:07:09.397Z,65.67
2022-10-17T00:09:35.753Z,65.37
2022-10-17T00:12:02.078Z,65.41
2022-10-17T00:14:28.407Z,65.79
2022-10-17T00:16:54.738Z,65.45
2022-10-17T00:19:21.072Z,65.38
2022-10-17T00:21:47.398Z,65.65
2022-10-17T00:24:13.729Z,65.59
2022-10-17T00:26:40.101Z,65.87
2022-10-17T00:29:06.505Z,65.75
2022-10-17T00:31:32.769Z,65.60
2022-10-17T00:33:59.147Z,65.18
2022-10-17T00:36:25.492Z,65.10
2022-10-17T00:38:51.818Z,65.01
2022-10-17T00:41:18.175Z,65.05
2022-10-17T00:43:44.494Z,65.18
2022-10-17T00:46:10.863Z,65.34
2022-10-17T00:48:37.192Z,65.60
2022-10-17T00:51:03.512Z,66.16
2022-10-17T00:53:29.893Z,66.60
2022-10-17T00:55:56.229Z,66.91
2022-10-17T00:58:22.576Z,67.57
2022-10-17T01:00:48.922Z,67.30
2022-10-17T01:03:15.254Z,67.61
2022-10-17T01:05:41.577Z,67.58
2022-10-17T01:08:07.925Z,67.43
2022-10-17T01:10:34.265Z,67.34
2022-10-17T01:13:00.657Z,67.39
2022-10-17T01:15:26.978Z,67.45
2022-10-17T01:17:53.367Z,67.68
2022-10-17T01:20:19.677Z,67.66
2022-10-17T01:22:46.004Z,67.66
2022-10-17T01:25:12.329Z,67.36
2022-10-17T01:27:38.727Z,67.46
2022-10-17T01:30:05.083Z,67.58
2022-10-17T01:32:31.410Z,67.65
2022-10-17T01:34:57.766Z,67.11
2022-10-17T01:37:24.112Z,67.03
2022-10-17T01:39:50.434Z,67.23
2022-10-17T01:42:16.827Z,67.36
2022-10-17T01:44:43.185Z,66.84
2022-10-17T01:47:09.516Z,66.78
2022-10-17T01:49:35.856Z,66.77
2022-10-17T01:52:02.206Z,66.63
2022-10-17T01:54:28.543Z,66.31
2022-10-17T01:56:54.868Z,66.54
2022-10-17T01:59:21.214Z,66.90
2022-10-17T02:01:47.588Z,66.92
2022-10-17T02:04:13.907Z,67.27
2022-10-17T02:06:40.236Z,67.12
2022-10-17T02:09:06.581Z,66.96
2022-10-17T02:11:32.923Z,67.22
2022-10-17T02:13:59.290Z,67.36
2022-10-17T02:16:25.597Z,67.14
2022-10-17T02:18:51.934Z,66.93
2022-10-17T02:21:18.288Z,67.04
2022-10-17T02:23:44.632Z,67.08
2022-10-17T02:26:10.972Z,66.81
2022-10-17T02:28:37.328Z,66.88
2022-10-17T02:31:03.636Z,66.88
2022-10-17T02:33:30.044Z,66.78
2022-10-17T02:35:56.398Z,67.11
2022-10-17T02:38:22.724Z,67.78
2022-10-17T02:40:49.065Z,68.54
2022-10-17T02:43:15.396Z,68.43
2022-10-17T02:45:41.756Z,68.58
2022-10-17T02:48:08.104Z,68.50
2022-10-17T02:50:34.451Z,68.38
2022-10-17T02:53:00.782Z,68.04
2022-10-17T02:55:27.145Z,68.02
2022-10-17T02:57:53.504Z,68.23
2022-10-17T03:00:19.852Z,68.47
2022-10-17T03:02:46.230Z,68.62
2022-10-17T03:05:12.543Z,68.93
2022-10-17T03:07:38.874Z,69.27
2022-10-17T03:10:05.233Z,69.48
2022-10-17T03:12:31.873Z,69.57
2022-10-17T03:14:57.879Z,69.61
2022-10-17T03:17:24.242Z,69.63
2022-10-17T03:19:50.578Z,69.58
2022-10-17T03:22:16.915Z,69.60
2022-10-17T03:24:43.269Z,69.99
2022-10-17T03:27:09.588Z,70.17
2022-10-17T03:29:35.930Z,69.95
2022-10-17T03:32:02.282Z,69.90
2022-10-17T03:34:28.600Z,70.01
2022-10-17T03:36:54.942Z,69.87
2022-10-17T03:39:21.302Z,69.81
2022-10-17T03:41:47.649Z,69.69
2022-10-17T03:44:14.009Z,69.64
2022-10-17T03:46:40.328Z,69.34
2022-10-17T03:49:06.686Z,69.18
2022-10-17T03:51:33.014Z,69.22
2022-10-17T03:53:59.337Z,69.30
2022-10-17T03:56:25.687Z,69.21
2022-10-17T03:58:52.012Z,69.53
2022-10-17T04:01:18.429Z,69.35
2022-10-17T04:03:44.674Z,69.47
2022-10-17T04:06:11.059Z,69.41
2022-10-17T04:08:37.394Z,69.39
2022-10-17T04:11:03.717Z,69.38
2022-10-17T04:13:30.078Z,69.38
2022-10-17T04:15:56.395Z,69.48
2022-10-17T04:18:22.719Z,69.83
2022-10-17T04:20:49.103Z,70.06
2022-10-17T04:23:15.443Z,70.12
2022-10-17T04:25:41.762Z,70.01
2022-10-17T04:28:08.121Z,70.20
2022-10-17T04:30:34.467Z,70.21
2022-10-17T04:33:00.811Z,70.22
2022-10-17T04:35:27.206Z,70.07
2022-10-17T04:37:53.527Z,70.02
2022-10-17T04:40:19.879Z,70.03
2022-10-17T04:42:46.216Z,69.87
2022-10-17T04:45:12.560Z,69.66
2022-10-17T04:47:38.880Z,69.69
2022-10-17T04:50:05.220Z,70.12
2022-10-17T04:52:31.816Z,70.30
2022-10-17T04:54:57.868Z,70.39
2022-10-17T04:57:24.190Z,70.08
2022-10-17T04:59:50.638Z,69.44
2022-10-17T05:02:16.913Z,68.82
2022-10-17T05:04:43.262Z,68.00
2022-10-17T05:07:09.607Z,67.42
2022-10-17T05:09:35.958Z,67.28
2022-10-17T05:12:04.330Z,66.77
2022-10-17T05:14:28.715Z,66.62
2022-10-17T05:16:55.060Z,65.87
2022-10-17T05:19:21.412Z,64.64
2022-10-17T05:21:47.764Z,64.66
2022-10-17T05:24:14.120Z,64.06
2022-10-17T05:26:40.435Z,63.87
2022-10-17T05:29:06.859Z,63.30
2022-10-17T05:31:33.176Z,63.09
2022-10-17T05:33:59.500Z,62.04
2022-10-17T05:36:25.889Z,61.08
2022-10-17T05:38:52.226Z,60.60
2022-10-17T05:41:18.576Z,60.37
2022-10-17T05:43:44.920Z,59.67
2022-10-17T05:46:11.262Z,59.27
2022-10-17T05:48:37.624Z,58.76
2022-10-17T05:51:03.950Z,57.60
2022-10-17T05:53:30.322Z,57.55
2022-10-17T05:55:56.670Z,56.80
2022-10-17T05:58:45.505Z,56.16
2022-10-17T06:00:49.337Z,56.14
2022-10-17T06:03:15.686Z,54.82
2022-10-17T06:05:42.013Z,55.38
2022-10-17T06:08:08.344Z,54.13
2022-10-17T06:10:34.692Z,53.99
2022-10-17T06:13:01.051Z,53.82
2022-10-17T06:15:27.385Z,54.30
2022-10-17T06:17:53.732Z,54.45
2022-10-17T06:20:20.092Z,53.73
2022-10-17T06:22:46.439Z,53.87
2022-10-17T06:25:12.751Z,53.49
2022-10-17T06:27:39.086Z,52.81
2022-10-17T06:30:05.433Z,52.02
2022-10-17T06:32:32.113Z,51.60
2022-10-17T06:34:58.113Z,51.15
2022-10-17T06:37:24.454Z,50.48
2022-10-17T06:39:50.832Z,50.14
2022-10-17T06:42:17.159Z,50.23
2022-10-17T06:44:43.488Z,50.66
2022-10-17T06:47:09.860Z,50.86
2022-10-17T06:49:36.182Z,49.35
2022-10-17T06:52:02.565Z,49.92
2022-10-17T06:54:28.891Z,50.19
2022-10-17T06:56:55.251Z,49.65
2022-10-17T06:59:21.607Z,49.40
2022-10-17T07:01:47.958Z,48.94
2022-10-17T07:04:14.276Z,48.80
2022-10-17T07:06:40.600Z,47.91
2022-10-17T07:09:06.975Z,47.63
2022-10-17T07:11:33.271Z,46.69
2022-10-17T07:13:59.594Z,45.41
2022-10-17T07:16:25.992Z,45.92
2022-10-17T07:18:52.317Z,45.67
2022-10-17T07:21:18.647Z,45.71
2022-10-17T07:23:45.016Z,45.31
2022-10-17T07:26:11.370Z,45.61
2022-10-17T07:28:37.731Z,45.05
2022-10-17T07:31:04.044Z,45.29
2022-10-17T07:33:30.362Z,44.27
2022-10-17T07:35:56.732Z,43.22
2022-10-17T07:38:23.074Z,43.47
2022-10-17T07:40:49.418Z,43.74
2022-10-17T07:43:15.734Z,43.21
2022-10-17T07:45:42.137Z,43.45
2022-10-17T07:48:08.461Z,42.88
2022-10-17T07:50:34.800Z,40.82
2022-10-17T07:53:01.162Z,41.49
2022-10-17T07:55:27.510Z,41.31
2022-10-17T07:57:53.834Z,40.66
2022-10-17T08:00:20.213Z,40.16
2022-10-17T08:02:46.551Z,40.17
2022-10-17T08:05:12.908Z,40.64
2022-10-17T08:07:39.312Z,39.92
2022-10-17T08:10:05.680Z,38.73
2022-10-17T08:12:32.527Z,38.46
2022-10-17T08:14:58.311Z,38.64
2022-10-17T08:17:24.639Z,38.33
2022-10-17T08:19:50.972Z,38.22
2022-10-17T08:22:17.310Z,38.65
2022-10-17T08:24:43.635Z,38.60
2022-10-17T08:27:09.975Z,38.89
2022-10-17T08:29:36.343Z,38.41
2022-10-17T08:32:05.431Z,37.84
2022-10-17T08:34:29.047Z,37.37
2022-10-17T08:36:55.414Z,36.87
2022-10-17T08:39:21.732Z,36.88
2022-10-17T08:41:48.058Z,36.99
2022-10-17T08:44:14.393Z,36.36
2022-10-17T08:46:40.800Z,37.01
2022-10-17T08:49:10.049Z,37.23
2022-10-17T08:51:33.527Z,36.77
2022-10-17T08:53:59.885Z,35.37
2022-10-17T08:56:44.117Z,35.18
2022-10-17T08:58:52.660Z,35.09
2022-10-17T09:01:18.978Z,34.55
2022-10-17T09:03:45.312Z,34.34
2022-10-17T09:06:11.649Z,33.47
2022-10-17T09:08:38.001Z,32.96
2022-10-17T09:11:04.341Z,32.42
2022-10-17T09:13:30.729Z,31.37
2022-10-17T09:15:57.015Z,30.33
2022-10-17T09:18:23.341Z,30.35
2022-10-17T09:20:49.695Z,30.29
2022-10-17T09:23:16.042Z,29.55
2022-10-17T09:25:42.386Z,28.88
2022-10-17T09:28:08.713Z,29.77
2022-10-17T09:30:50.027Z,29.91
2022-10-17T09:33:01.446Z,28.80
2022-10-17T09:35:27.769Z,28.37
2022-10-17T09:37:54.137Z,29.00
2022-10-17T09:40:20.468Z,28.81
2022-10-17T09:42:46.821Z,29.23
2022-10-17T09:45:13.142Z,28.27
2022-10-17T09:47:39.515Z,28.06
2022-10-17T09:50:05.858Z,26.17
2022-10-17T09:52:32.657Z,26.14
2022-10-17T09:54:58.554Z,26.93
2022-10-17T09:57:24.907Z,26.41
2022-10-17T09:59:51.259Z,26.52
2022-10-17T10:02:17.605Z,26.11
2022-10-17T10:05:03.313Z,25.96
2022-10-17T10:07:10.289Z,25.62
2022-10-17T10:09:39.354Z,24.67
2022-10-17T10:12:02.983Z,24.05
2022-10-17T10:14:29.346Z,23.47
2022-10-17T10:16:55.682Z,23.19
2022-10-17T10:19:22.031Z,23.28
2022-10-17T10:21:48.359Z,23.49
2022-10-17T10:24:14.702Z,22.64
2022-10-17T10:26:41.056Z,22.52
2022-10-17T10:29:07.431Z,22.74
2022-10-17T10:31:33.714Z,23.35
2022-10-17T10:34:00.048Z,23.72
2022-10-17T10:36:26.639Z,23.23
2022-10-17T10:38:52.841Z,23.48
2022-10-17T10:41:19.258Z,23.68
2022-10-17T10:43:45.581Z,23.80
2022-10-17T10:46:11.908Z,23.36
2022-10-17T10:48:38.267Z,22.79
2022-10-17T10:51:04.597Z,22.69
2022-10-17T10:53:34.959Z,22.61
2022-10-17T10:55:57.292Z,23.33
2022-10-17T10:58:23.648Z,22.42
2022-10-17T11:00:50.034Z,22.08
2022-10-17T11:03:16.307Z,22.04
2022-10-17T11:05:42.629Z,22.08
2022-10-17T11:08:08.956Z,21.83
2022-10-17T11:10:35.302Z,22.19
2022-10-17T11:13:01.713Z,22.72
2022-10-17T11:15:27.946Z,23.20
2022-10-17T11:17:54.298Z,22.90
2022-10-17T11:20:20.631Z,22.54
2022-10-17T11:22:46.955Z,21.83
2022-10-17T11:25:13.298Z,21.61
2022-10-17T11:27:39.620Z,21.92
2022-10-17T11:30:05.958Z,21.91
2022-10-17T11:32:32.540Z,22.05
2022-10-17T11:34:58.611Z,22.26
2022-10-17T11:37:24.947Z,21.80
2022-10-17T11:39:51.275Z,21.83
2022-10-17T11:42:17.603Z,22.44
2022-10-17T11:44:43.925Z,21.99
2022-10-17T11:47:10.283Z,21.59
2022-10-17T11:49:39.867Z,21.42
2022-10-17T11:52:03.477Z,21.40
2022-10-17T11:54:29.450Z,22.25
2022-10-17T11:56:55.616Z,22.12
2022-10-17T11:59:22.713Z,21.60
2022-10-17T12:01:49.248Z,21.88
2022-10-17T12:04:15.598Z,21.88
2022-10-17T12:06:41.890Z,21.43
2022-10-17T12:09:08.265Z,21.57
2022-10-17T12:11:34.595Z,21.72
2022-10-17T12:14:04.971Z,21.17
2022-10-17T12:16:27.248Z,21.40
2022-10-17T12:18:53.579Z,21.47
2022-10-17T12:21:19.902Z,21.50
2022-10-17T12:23:46.231Z,21.29
2022-10-17T12:26:12.550Z,21.83
2022-10-17T12:28:39.529Z,20.98
2022-10-17T12:31:05.240Z,21.83
2022-10-17T12:33:31.634Z,21.27
2022-10-17T12:35:57.918Z,21.06
2022-10-17T12:38:24.272Z,21.02
2022-10-17T12:40:50.610Z,21.59
2022-10-17T12:43:16.934Z,21.57
2022-10-17T12:45:43.288Z,21.34
2022-10-17T12:48:09.617Z,21.16
2022-10-17T12:50:38.053Z,21.76
2022-10-17T12:53:02.274Z,21.98
2022-10-17T12:55:28.632Z,22.06
2022-10-17T12:57:54.974Z,21.93
2022-10-17T13:00:21.280Z,22.34
2022-10-17T13:02:47.602Z,22.74
2022-10-17T13:05:13.969Z,23.37
2022-10-17T13:07:40.298Z,23.82
2022-10-17T13:10:06.692Z,24.10
2022-10-17T13:12:34.051Z,24.47
2022-10-17T13:14:59.292Z,24.80
2022-10-17T13:17:25.614Z,24.89
2022-10-17T13:19:51.943Z,25.42
2022-10-17T13:22:18.279Z,26.18
2022-10-17T13:24:44.679Z,26.50
2022-10-17T13:27:11.001Z,26.30
2022-10-17T13:29:37.345Z,26.97
2022-10-17T13:32:03.707Z,27.17
2022-10-17T13:34:30.041Z,27.42
2022-10-17T13:36:56.365Z,27.25
2022-10-17T13:39:32.557Z,27.07
2022-10-17T13:41:49.020Z,27.46
2022-10-17T13:44:15.356Z,27.62
2022-10-17T13:46:41.765Z,27.77
2022-10-17T13:49:08.115Z,28.06
2022-10-17T13:51:34.472Z,28.40
2022-10-17T13:54:00.799Z,28.68
2022-10-17T13:56:28.890Z,28.85
2022-10-17T13:58:53.462Z,28.86
2022-10-17T14:01:19.860Z,29.24
2022-10-17T14:03:48.623Z,29.50
2022-10-17T14:06:12.494Z,29.91
2022-10-17T14:08:38.814Z,30.16
2022-10-17T14:11:05.143Z,30.05
2022-10-17T14:13:31.468Z,30.51
2022-10-17T14:15:57.834Z,30.49
2022-10-17T14:18:24.165Z,30.67
2022-10-17T14:23:22.985Z,31.29
2022-10-17T14:25:43.139Z,31.60
2022-10-17T14:28:09.495Z,31.87
2022-10-17T14:30:55.752Z,32.30
2022-10-17T14:33:02.127Z,32.50
2022-10-17T14:35:41.553Z,32.55
2022-10-17T14:37:54.828Z,32.75
2022-10-17T14:40:21.166Z,32.86
2022-10-17T14:42:47.495Z,32.83
2022-10-17T14:45:13.832Z,33.31
2022-10-17T14:47:44.282Z,33.39
2022-10-17T14:50:06.626Z,33.53
2022-10-17T14:52:33.280Z,33.83
2022-10-17T14:54:59.286Z,34.06
2022-10-17T14:57:25.609Z,34.17
2022-10-17T14:59:54.620Z,34.26
2022-10-17T15:02:18.273Z,34.83
2022-10-17T15:04:44.661Z,35.01
2022-10-17T15:07:11.058Z,35.10
2022-10-17T15:09:37.306Z,34.92
2022-10-17T15:12:03.659Z,35.13
2022-10-17T15:14:29.996Z,35.34
2022-10-17T15:16:56.318Z,35.66
2022-10-17T15:19:22.666Z,35.89
2022-10-17T15:21:49.022Z,35.95
2022-10-17T15:24:15.342Z,36.16
2022-10-17T15:26:41.777Z,36.26
2022-10-17T15:29:08.041Z,36.53
2022-10-17T15:31:34.346Z,36.99
2022-10-17T15:34:00.720Z,37.66
2022-10-17T15:36:27.043Z,37.80
2022-10-17T15:38:53.363Z,37.71
2022-10-17T15:41:19.713Z,38.09
2022-10-17T15:43:46.086Z,38.21
2022-10-17T15:46:12.581Z,38.15
2022-10-17T15:48:38.751Z,38.07
2022-10-17T15:51:05.152Z,38.38
2022-10-17T15:53:31.512Z,38.16
2022-10-17T15:55:57.865Z,38.13
2022-10-17T15:58:24.215Z,38.22
2022-10-17T16:00:50.581Z,38.39
2022-10-17T16:03:16.975Z,38.45
2022-10-17T16:05:43.256Z,38.71
2022-10-17T16:08:09.601Z,39.33
2022-10-17T16:10:35.950Z,39.78
2022-10-17T16:13:02.270Z,39.50
2022-10-17T16:15:28.620Z,39.41
2022-10-17T16:17:54.945Z,39.26
2022-10-17T16:20:21.293Z,38.86
2022-10-17T16:22:47.643Z,38.64
2022-10-17T16:25:13.969Z,38.49
2022-10-17T16:27:40.309Z,39.20
2022-10-17T16:30:06.662Z,39.75
2022-10-17T16:32:33.086Z,39.45
2022-10-17T16:34:59.313Z,39.39
2022-10-17T16:37:25.667Z,39.04
2022-10-17T16:39:52.015Z,39.06
2022-10-17T16:42:18.354Z,39.77
2022-10-17T16:44:44.727Z,40.73
2022-10-17T16:47:11.042Z,41.15
2022-10-17T16:49:40.350Z,41.55
2022-10-17T16:52:03.718Z,41.10
2022-10-17T16:54:30.044Z,41.74
2022-10-17T16:56:56.484Z,41.34
2022-10-17T16:59:22.824Z,41.71
2022-10-17T17:01:49.146Z,41.79
2022-10-17T17:04:15.538Z,41.14
2022-10-17T17:06:41.926Z,41.07
2022-10-17T17:09:08.199Z,41.83
2022-10-17T17:11:34.524Z,41.48
2022-10-17T17:14:00.869Z,42.72
2022-10-17T17:16:27.208Z,42.72
2022-10-17T17:18:53.559Z,42.99
2022-10-17T17:21:19.920Z,42.67
2022-10-17T17:23:46.251Z,42.42
2022-10-17T17:26:12.588Z,42.64
2022-10-17T17:28:39.118Z,43.31
2022-10-17T17:31:05.334Z,43.45
2022-10-17T17:33:31.678Z,44.18
2022-10-17T17:35:58.020Z,43.91
2022-10-17T17:38:24.386Z,44.81
2022-10-17T17:40:51.215Z,45.46
2022-10-17T17:43:17.076Z,45.46
2022-10-17T17:45:43.430Z,44.90
2022-10-17T17:48:09.779Z,44.98
2022-10-17T17:50:36.118Z,45.56
2022-10-17T17:53:02.480Z,45.69
2022-10-17T17:55:28.803Z,46.60
2022-10-17T17:57:55.177Z,47.21
2022-10-17T18:00:21.508Z,47.15
2022-10-17T18:02:47.837Z,46.94
2022-10-17T18:05:14.190Z,47.00
2022-10-17T18:07:40.507Z,47.19
2022-10-17T18:10:06.954Z,47.15
2022-10-17T18:12:33.254Z,46.81
2022-10-17T18:14:59.573Z,46.70
2022-10-17T18:17:25.960Z,46.71
2022-10-17T18:19:52.277Z,46.17
2022-10-17T18:22:18.629Z,46.10
2022-10-17T18:24:45.056Z,46.20
2022-10-17T18:27:11.379Z,46.90
2022-10-17T18:29:37.702Z,48.47
2022-10-17T18:32:04.066Z,49.34
2022-10-17T18:34:30.404Z,49.41
2022-10-17T18:36:56.742Z,50.11
2022-10-17T18:39:23.080Z,49.64
2022-10-17T18:41:49.427Z,49.11
2022-10-17T18:44:15.752Z,48.66
2022-10-17T18:46:42.148Z,47.67
2022-10-17T18:49:08.483Z,48.03
2022-10-17T18:51:34.809Z,48.64
2022-10-17T18:54:01.141Z,48.03
2022-10-17T18:56:27.479Z,48.89
2022-10-17T18:58:53.842Z,47.23
2022-10-17T19:01:20.289Z,47.67
2022-10-17T19:03:46.520Z,48.86
2022-10-17T19:06:12.883Z,48.54
2022-10-17T19:08:39.236Z,49.32
2022-10-17T19:11:05.581Z,49.62
2022-10-17T19:13:31.988Z,48.52
2022-10-17T19:15:58.282Z,48.21
2022-10-17T19:18:24.628Z,50.24
2022-10-17T19:20:50.957Z,50.14
2022-10-17T19:23:17.282Z,48.17
2022-10-17T19:25:43.658Z,48.05
2022-10-17T19:28:10.004Z,47.22
2022-10-17T19:30:36.349Z,47.80
2022-10-17T19:33:02.743Z,47.79
2022-10-17T19:35:29.092Z,48.88
2022-10-17T19:37:55.411Z,48.34
2022-10-17T19:40:21.736Z,49.20
2022-10-17T19:42:48.064Z,48.53
2022-10-17T19:45:14.418Z,50.04
2022-10-17T19:47:40.805Z,51.17
2022-10-17T19:50:07.135Z,51.17
2022-10-17T19:52:33.784Z,52.17
2022-10-17T19:54:59.846Z,53.11
2022-10-17T19:57:26.165Z,53.37
2022-10-17T19:59:55.725Z,53.06
2022-10-17T20:02:18.805Z,52.39
2022-10-17T20:04:54.510Z,52.24
2022-10-17T20:07:11.561Z,52.60
2022-10-17T20:09:37.847Z,53.29
2022-10-17T20:12:04.163Z,53.91
2022-10-17T20:14:30.498Z,53.99
2022-10-17T20:16:56.858Z,54.08
2022-10-17T20:19:23.160Z,54.32
2022-10-17T20:21:49.485Z,54.71
2022-10-17T20:24:15.871Z,54.44
2022-10-17T20:26:42.209Z,54.19
2022-10-17T20:29:08.859Z,54.09
2022-10-17T20:31:34.904Z,54.69
2022-10-17T20:34:01.248Z,53.27
2022-10-17T20:36:27.576Z,52.79
2022-10-17T20:38:53.965Z,52.78
2022-10-17T20:41:20.305Z,54.37
2022-10-17T20:43:46.651Z,54.31
2022-10-17T20:46:29.508Z,52.44
2022-10-17T20:48:39.344Z,52.73
2022-10-17T20:51:05.716Z,53.44
2022-10-17T20:53:36.974Z,54.41
2022-10-17T20:55:58.418Z,54.81
2022-10-17T20:58:24.753Z,55.00
2022-10-17T21:00:51.132Z,55.12
2022-10-17T21:03:17.460Z,55.93
2022-10-17T21:05:43.781Z,56.66
2022-10-17T21:08:10.141Z,57.18
2022-10-17T21:10:36.695Z,56.54
2022-10-17T21:13:03.049Z,56.79
2022-10-17T21:15:29.414Z,55.99
2022-10-17T21:17:55.759Z,57.18
2022-10-17T21:20:22.101Z,57.08
2022-10-17T21:22:48.450Z,57.27
2022-10-17T21:25:14.812Z,57.39
2022-10-17T21:27:41.140Z,57.36
2022-10-17T21:32:51.232Z,57.34
2022-10-17T21:35:00.165Z,57.29
2022-10-17T21:37:26.492Z,57.08
2022-10-17T21:39:52.806Z,57.13
2022-10-17T21:42:19.185Z,56.93
2022-10-17T21:44:45.525Z,56.64
2022-10-17T21:47:11.855Z,56.86
2022-10-17T21:49:38.217Z,56.47
2022-10-17T21:52:04.541Z,55.95
2022-10-17T21:54:30.881Z,56.44
2022-10-17T21:56:57.255Z,56.45
2022-10-17T21:59:23.593Z,56.55
2022-10-17T22:01:49.957Z,56.67
2022-10-17T22:04:16.289Z,56.29
2022-10-17T22:06:42.671Z,56.90
2022-10-17T22:09:08.949Z,56.72
2022-10-17T22:11:35.287Z,57.49
2022-10-17T22:14:01.660Z,56.16
2022-10-17T22:16:27.986Z,56.64
2022-10-17T22:18:54.308Z,56.83
2022-10-17T22:21:20.681Z,56.80
2022-10-17T22:23:47.019Z,57.12
2022-10-17T22:26:13.348Z,57.05
2022-10-17T22:28:39.766Z,56.75
2022-10-17T22:31:06.082Z,57.17
2022-10-17T22:33:32.421Z,57.10
2022-10-17T22:35:58.751Z,57.18
2022-10-17T22:38:25.095Z,56.77
2022-10-17T22:40:51.444Z,56.62
2022-10-17T22:43:17.784Z,56.94
2022-10-17T22:45:44.130Z,57.04
2022-10-17T22:48:10.508Z,57.05
2022-10-17T22:50:36.860Z,57.35
2022-10-17T22:53:03.205Z,57.71
2022-10-17T22:55:29.548Z,57.73
2022-10-17T22:57:55.885Z,57.07
2022-10-17T23:00:22.248Z,57.24
2022-10-17T23:02:48.548Z,56.87
2022-10-17T23:05:14.887Z,56.71
2022-10-17T23:07:41.227Z,56.60
2022-10-17T23:10:07.601Z,56.80
2022-10-17T23:12:33.947Z,56.76
2022-10-17T23:15:00.302Z,57.46
2022-10-17T23:17:26.656Z,57.42
2022-10-17T23:19:55.562Z,57.64
2022-10-17T23:22:19.314Z,58.13
2022-10-17T23:24:45.665Z,58.12
2022-10-17T23:27:12.017Z,58.24
2022-10-17T23:29:38.344Z,58.80
2022-10-17T23:32:04.694Z,59.13
2022-10-17T23:34:31.032Z,59.30
2022-10-17T23:36:57.375Z,59.57
2022-10-17T23:39:23.740Z,59.69
2022-10-17T23:41:50.084Z,59.94
2022-10-17T23:44:16.428Z,60.31
2022-10-17T23:46:42.781Z,61.11
2022-10-17T23:49:09.120Z,60.73
2022-10-17T23:51:35.466Z,60.62
2022-10-17T23:54:01.808Z,60.72
2022-10-17T23:56:28.148Z,60.72
2022-10-17T23:58:54.485Z,60.47
